Time,TemperatureF,DewpointF,PressureIn,WindDirection,WindDirectionDegrees,WindSpeedMPH,WindSpeedGustMPH,Humidity,HourlyPrecipIn,Conditions,Clouds,dailyrainin,SoftwareType,DateUTC
2013-03-20 00:00:00,-999.0,-99.9,26.34,North,-999,-999.0,-999.0,-999,0.00,,,0.00,weatherlink.com 1.10,2013-03-20 04:00:00,
2013-03-20 00:15:00,-999.0,-99.9,26.34,North,-999,-999.0,-999.0,-999,0.00,,,0.00,weatherlink.com 1.10,2013-03-20 04:15:00,
2013-03-20 00:30:00,-999.0,-99.9,26.34,North,-999,-999.0,-999.0,-999,0.00,,,0.00,weatherlink.com 1.10,2013-03-20 04:30:00,
2013-03-20 00:45:00,-999.0,-99.9,26.34,North,-999,-999.0,-999.0,-999,0.00,,,0.00,weatherlink.com 1.10,2013-03-20 04:45:00,
2013-03-20 01:01:00,-999.0,-99.9,26.34,North,-999,-999.0,-999.0,-999,0.00,,,0.00,weatherlink.com 1.10,2013-03-20 05:01:00,
2013-03-20 01:16:00,-999.0,-99.9,26.34,North,-999,-999.0,-999.0,-999,0.00,,,0.00,weatherlink.com 1.10,2013-03-20 05:16:00,
2013-03-20 02:16:00,-999.0,-99.9,26.33,North,-999,-999.0,-999.0,-999,0.00,,,0.00,weatherlink.com 1.10,2013-03-20 06:16:00,
2013-03-20 02:31:00,-999.0,-99.9,26.33,North,-999,-999.0,-999.0,-999,0.00,,,0.00,weatherlink.com 1.10,2013-03-20 06:31:00,
2013-03-20 02:46:00,-999.0,-99.9,26.32,North,-999,-999.0,-999.0,-999,0.00,,,0.00,weatherlink.com 1.10,2013-03-20 06:46:00,
2013-03-20 03:01:00,-999.0,-99.9,26.32,North,-999,-999.0,-999.0,-999,0.00,,,0.00,weatherlink.com 1.10,2013-03-20 07:01:00,
2013-03-20 03:16:00,-999.0,-99.9,26.32,North,-999,-999.0,-999.0,-999,0.00,,,0.00,weatherlink.com 1.10,2013-03-20 07:16:00,
2013-03-20 03:31:00,-999.0,-99.9,26.32,North,-999,-999.0,-999.0,-999,0.00,,,0.00,weatherlink.com 1.10,2013-03-20 07:31:00,
2013-03-20 03:46:00,-999.0,-99.9,26.31,North,-999,-999.0,-999.0,-999,0.00,,,0.00,weatherlink.com 1.10,2013-03-20 07:46:00,
2013-03-20 04:01:00,-999.0,-99.9,26.31,North,-999,-999.0,-999.0,-999,0.00,,,0.00,weatherlink.com 1.10,2013-03-20 08:01:00,
2013-03-20 04:16:00,-999.0,-99.9,26.30,North,-999,-999.0,-999.0,-999,0.00,,,0.00,weatherlink.com 1.10,2013-03-20 08:16:00,
2013-03-20 04:32:00,-999.0,-99.9,26.30,North,-999,-999.0,-999.0,-999,0.00,,,0.00,weatherlink.com 1.10,2013-03-20 08:32:00,
2013-03-20 04:47:00,-999.0,-99.9,26.30,North,-999,-999.0,-999.0,-999,0.00,,,0.00,weatherlink.com 1.10,2013-03-20 08:47:00,
2013-03-20 05:02:00,-999.0,-99.9,26.29,North,-999,-999.0,-999.0,-999,0.00,,,0.00,weatherlink.com 1.10,2013-03-20 09:02:00,
2013-03-20 05:17:00,-999.0,-99.9,26.29,North,-999,-999.0,-999.0,-999,0.00,,,0.00,weatherlink.com 1.10,2013-03-20 09:17:00,
2013-03-20 05:32:00,-999.0,-99.9,26.30,North,-999,-999.0,-999.0,-999,0.00,,,0.00,weatherlink.com 1.10,2013-03-20 09:32:00,
2013-03-20 05:47:00,-999.0,-99.9,26.29,North,-999,-999.0,-999.0,-999,0.00,,,0.00,weatherlink.com 1.10,2013-03-20 09:47:00,
2013-03-20 06:02:00,-999.0,-99.9,26.29,North,-999,-999.0,-999.0,-999,0.00,,,0.00,weatherlink.com 1.10,2013-03-20 10:02:00,
2013-03-20 06:17:00,-999.0,-99.9,26.30,North,-999,-999.0,-999.0,-999,0.00,,,0.00,weatherlink.com 1.10,2013-03-20 10:17:00,
2013-03-20 06:32:00,-999.0,-99.9,26.30,North,-999,-999.0,-999.0,-999,0.00,,,0.00,weatherlink.com 1.10,2013-03-20 10:32:00,
2013-03-20 06:47:00,-999.0,-99.9,26.31,North,-999,-999.0,-999.0,-999,0.00,,,0.00,weatherlink.com 1.10,2013-03-20 10:47:00,
2013-03-20 07:02:00,-999.0,-99.9,26.31,North,-999,-999.0,-999.0,-999,0.00,,,0.00,weatherlink.com 1.10,2013-03-20 11:02:00,
2013-03-20 07:17:00,-999.0,-99.9,26.31,North,-999,-999.0,-999.0,-999,0.00,,,0.00,weatherlink.com 1.10,2013-03-20 11:17:00,
2013-03-20 07:32:00,-999.0,-99.9,26.32,North,-999,-999.0,-999.0,-999,0.00,,,0.00,weatherlink.com 1.10,2013-03-20 11:32:00,
2013-03-20 07:48:00,-999.0,-99.9,26.32,North,-999,-999.0,-999.0,-999,0.00,,,0.00,weatherlink.com 1.10,2013-03-20 11:48:00,
2013-03-20 08:03:00,-999.0,-99.9,26.33,North,-999,-999.0,-999.0,-999,0.00,,,0.00,weatherlink.com 1.10,2013-03-20 12:03:00,
2013-03-20 08:18:00,26.4,8.0,26.34,NW,317,2.0,3.0,45,0.00,,,0.00,weatherlink.com 1.10,2013-03-20 12:18:00,
2013-03-20 08:33:00,27.0,8.0,26.34,NW,317,2.0,3.0,44,0.00,,,0.00,weatherlink.com 1.10,2013-03-20 12:33:00,
2013-03-20 08:48:00,28.1,10.0,26.34,WNW,300,3.0,6.0,46,0.00,,,0.00,weatherlink.com 1.10,2013-03-20 12:48:00,
2013-03-20 09:03:00,28.5,6.0,26.34,WSW,257,0.0,7.0,39,0.00,,,0.00,weatherlink.com 1.10,2013-03-20 13:03:00,
2013-03-20 09:18:00,29.7,7.0,26.34,WSW,249,4.0,5.0,39,0.00,,,0.00,weatherlink.com 1.10,2013-03-20 13:18:00,
2013-03-20 09:33:00,30.0,8.0,26.34,NNW,331,5.0,10.0,40,0.00,,,0.00,weatherlink.com 1.10,2013-03-20 13:33:00,
2013-03-20 09:48:00,30.7,6.0,26.34,NNW,341,8.0,9.0,35,0.00,,,0.00,weatherlink.com 1.10,2013-03-20 13:48:00,
2013-03-20 10:03:00,30.9,7.0,26.34,West,277,1.0,7.0,37,0.00,,,0.00,weatherlink.com 1.10,2013-03-20 14:03:00,
2013-03-20 10:18:00,31.9,8.0,26.34,SW,234,2.0,8.0,37,0.00,,,0.00,weatherlink.com 1.10,2013-03-20 14:18:00,
2013-03-20 10:33:00,32.4,6.0,26.34,WSW,242,7.0,8.0,33,0.00,,,0.00,weatherlink.com 1.10,2013-03-20 14:33:00,
2013-03-20 10:48:00,33.8,10.0,26.33,SSW,205,1.0,7.0,37,0.00,,,0.00,weatherlink.com 1.10,2013-03-20 14:48:00,
2013-03-20 11:03:00,35.0,11.0,26.33,SW,226,3.0,10.0,37,0.00,,,0.00,weatherlink.com 1.10,2013-03-20 15:03:00,
2013-03-20 11:18:00,35.9,8.0,26.32,SSW,196,7.0,9.0,31,0.00,,,0.00,weatherlink.com 1.10,2013-03-20 15:18:00,
2013-03-20 11:33:00,36.9,8.0,26.33,SW,217,3.0,13.0,30,0.00,,,0.00,weatherlink.com 1.10,2013-03-20 15:33:00,
2013-03-20 11:48:00,37.5,7.0,26.32,SSW,211,3.0,11.0,28,0.00,,,0.00,weatherlink.com 1.10,2013-03-20 15:48:00,
2013-03-20 12:03:00,37.6,6.0,26.32,NW,313,6.0,15.0,27,0.00,,,0.00,weatherlink.com 1.10,2013-03-20 16:03:00,
2013-03-20 12:18:00,38.5,9.0,26.31,South,184,11.0,15.0,29,0.00,,,0.00,weatherlink.com 1.10,2013-03-20 16:18:00,
2013-03-20 12:33:00,39.6,8.0,26.30,SW,220,5.0,15.0,27,0.00,,,0.00,weatherlink.com 1.10,2013-03-20 16:33:00,
2013-03-20 12:48:00,40.1,8.0,26.30,SW,233,3.0,18.0,27,0.00,,,0.00,weatherlink.com 1.10,2013-03-20 16:48:00,
2013-03-20 13:03:00,40.8,9.0,26.29,SW,225,6.0,17.0,27,0.00,,,0.00,weatherlink.com 1.10,2013-03-20 17:03:00,
2013-03-20 13:18:00,39.9,5.0,26.28,South,190,9.0,16.0,23,0.00,,,0.00,weatherlink.com 1.10,2013-03-20 17:18:00,
2013-03-20 13:33:00,40.5,3.0,26.27,SW,223,6.0,17.0,21,0.00,,,0.00,weatherlink.com 1.10,2013-03-20 17:33:00,
2013-03-20 13:48:00,40.8,4.0,26.26,SSW,207,1.0,15.0,21,0.00,,,0.00,weatherlink.com 1.10,2013-03-20 17:48:00,
2013-03-20 14:03:00,41.9,5.0,26.25,SW,232,8.0,20.0,22,0.00,,,0.00,weatherlink.com 1.10,2013-03-20 18:03:00,
2013-03-20 14:19:00,42.3,5.0,26.24,South,184,7.0,20.0,21,0.00,,,0.00,weatherlink.com 1.10,2013-03-20 18:19:00,
2013-03-20 14:34:00,42.6,9.0,26.23,SSW,202,8.0,15.0,25,0.00,,,0.00,weatherlink.com 1.10,2013-03-20 18:34:00,
2013-03-20 14:49:00,42.2,6.0,26.22,West,267,13.0,20.0,22,0.00,,,0.00,weatherlink.com 1.10,2013-03-20 18:49:00,
2013-03-20 15:04:00,43.6,8.0,26.20,South,191,10.0,15.0,23,0.00,,,0.00,weatherlink.com 1.10,2013-03-20 19:04:00,
2013-03-20 15:19:00,43.1,8.0,26.20,WNW,289,12.0,12.0,24,0.00,,,0.00,weatherlink.com 1.10,2013-03-20 19:19:00,
2013-03-20 15:34:00,43.8,11.0,26.19,WSW,253,7.0,13.0,26,0.00,,,0.00,weatherlink.com 1.10,2013-03-20 19:34:00,
2013-03-20 15:49:00,43.1,6.0,26.18,NNW,336,9.0,17.0,22,0.00,,,0.00,weatherlink.com 1.10,2013-03-20 19:49:00,
2013-03-20 16:04:00,42.5,9.0,26.17,NW,319,5.0,14.0,25,0.00,,,0.00,weatherlink.com 1.10,2013-03-20 20:04:00,
2013-03-20 16:19:00,43.3,7.0,26.17,SW,221,6.0,20.0,22,0.00,,,0.00,weatherlink.com 1.10,2013-03-20 20:19:00,
2013-03-20 16:34:00,42.5,5.0,26.17,SW,215,15.0,19.0,21,0.00,,,0.00,weatherlink.com 1.10,2013-03-20 20:34:00,
2013-03-20 16:49:00,42.6,6.0,26.17,SW,227,2.0,15.0,22,0.00,,,0.00,weatherlink.com 1.10,2013-03-20 20:49:00,
2013-03-20 17:04:00,42.8,9.0,26.17,SSW,195,5.0,19.0,25,0.00,,,0.00,weatherlink.com 1.10,2013-03-20 21:04:00,
2013-03-20 17:19:00,42.9,5.0,26.16,WNW,292,6.0,11.0,21,0.00,,,0.00,weatherlink.com 1.10,2013-03-20 21:19:00,
2013-03-20 17:34:00,42.2,6.0,26.15,SW,234,7.0,19.0,22,0.00,,,0.00,weatherlink.com 1.10,2013-03-20 21:34:00,
2013-03-20 17:49:00,41.6,7.0,26.15,SSW,193,10.0,14.0,24,0.00,,,0.00,weatherlink.com 1.10,2013-03-20 21:49:00,
2013-03-20 18:04:00,41.9,6.0,26.14,WNW,289,5.0,11.0,23,0.00,,,0.00,weatherlink.com 1.10,2013-03-20 22:04:00,
2013-03-20 18:19:00,40.3,5.0,26.14,NNE,32,8.0,10.0,23,0.00,,,0.00,weatherlink.com 1.10,2013-03-20 22:19:00,
2013-03-20 18:34:00,39.8,7.0,26.14,West,281,7.0,14.0,25,0.00,,,0.00,weatherlink.com 1.10,2013-03-20 22:34:00,
2013-03-20 18:49:00,39.2,11.0,26.13,WSW,242,14.0,18.0,31,0.00,,,0.00,weatherlink.com 1.10,2013-03-20 22:49:00,
2013-03-20 19:04:00,39.1,7.0,26.14,West,263,9.0,16.0,26,0.00,,,0.00,weatherlink.com 1.10,2013-03-20 23:04:00,
2013-03-20 19:19:00,38.8,8.0,26.14,WSW,244,3.0,10.0,28,0.00,,,0.00,weatherlink.com 1.10,2013-03-20 23:19:00,
2013-03-20 19:34:00,-999.0,-99.9,26.14,North,-999,-999.0,-999.0,-999,0.00,,,0.00,weatherlink.com 1.10,2013-03-20 23:34:00,
2013-03-20 19:49:00,-999.0,-99.9,26.14,North,-999,-999.0,-999.0,-999,0.00,,,0.00,weatherlink.com 1.10,2013-03-20 23:49:00,
2013-03-20 20:04:00,-999.0,-99.9,26.14,North,-999,-999.0,-999.0,-999,0.00,,,0.00,weatherlink.com 1.10,2013-03-21 00:04:00,
2013-03-20 20:19:00,-999.0,-99.9,26.14,North,-999,-999.0,-999.0,-999,0.00,,,0.00,weatherlink.com 1.10,2013-03-21 00:19:00,
2013-03-20 20:34:00,-999.0,-99.9,26.14,North,-999,-999.0,-999.0,-999,0.00,,,0.00,weatherlink.com 1.10,2013-03-21 00:34:00,
2013-03-20 20:49:00,-999.0,-99.9,26.14,North,-999,-999.0,-999.0,-999,0.00,,,0.00,weatherlink.com 1.10,2013-03-21 00:49:00,
2013-03-20 21:04:00,-999.0,-99.9,26.14,North,-999,-999.0,-999.0,-999,0.00,,,0.00,weatherlink.com 1.10,2013-03-21 01:04:00,
2013-03-20 21:20:00,-999.0,-99.9,26.14,North,-999,-999.0,-999.0,-999,0.00,,,0.00,weatherlink.com 1.10,2013-03-21 01:20:00,
2013-03-20 21:35:00,-999.0,-99.9,26.14,North,-999,-999.0,-999.0,-999,0.00,,,0.00,weatherlink.com 1.10,2013-03-21 01:35:00,
2013-03-20 21:50:00,-999.0,-99.9,26.13,North,-999,-999.0,-999.0,-999,0.00,,,0.00,weatherlink.com 1.10,2013-03-21 01:50:00,
2013-03-20 22:05:00,-999.0,-99.9,26.13,North,-999,-999.0,-999.0,-999,0.00,,,0.00,weatherlink.com 1.10,2013-03-21 02:05:00,
2013-03-20 22:20:00,-999.0,-99.9,26.13,North,-999,-999.0,-999.0,-999,0.00,,,0.00,weatherlink.com 1.10,2013-03-21 02:20:00,
2013-03-20 22:35:00,-999.0,-99.9,26.14,North,-999,-999.0,-999.0,-999,0.00,,,0.00,weatherlink.com 1.10,2013-03-21 02:35:00,
2013-03-20 22:50:00,-999.0,-99.9,26.14,North,-999,-999.0,-999.0,-999,0.00,,,0.00,weatherlink.com 1.10,2013-03-21 02:50:00,
2013-03-20 23:05:00,-999.0,-99.9,26.14,North,-999,-999.0,-999.0,-999,0.00,,,0.00,weatherlink.com 1.10,2013-03-21 03:05:00,
2013-03-20 23:20:00,-999.0,-99.9,26.13,North,-999,-999.0,-999.0,-999,0.00,,,0.00,weatherlink.com 1.10,2013-03-21 03:20:00,
2013-03-20 23:35:00,-999.0,-99.9,26.14,North,-999,-999.0,-999.0,-999,0.00,,,0.00,weatherlink.com 1.10,2013-03-21 03:35:00,
2013-03-20 23:50:00,-999.0,-99.9,26.15,North,-999,-999.0,-999.0,-999,0.00,,,0.00,weatherlink.com 1.10,2013-03-21 03:50:00,